Terminal Aerodrome Forecast
Issued by NWS

Home | Current Version | Previous Version | Text Only | Print | Product List | Glossary On
Versions: 1 2 3 4 5 6 7 8 9 10 11 12 13 14 15 16 17 18 19 20 21 22 23 24 25 26 27 28 29 30 31 32
263
FTUS45 KBOI 291736
TAFMYL
TAF
KMYL 291736Z 2918/3018 VRB03KT P6SM -RA OVC010
     FM292300 33010KT P6SM -SHRA BKN025 OVC040
     FM300300 34006KT P6SM VCSH BKN040
     FM301200 34010KT P6SM SCT080=

USA.gov is the U.S. government's official web portal to all federal, state and local government web resources and services.